Time;durP1;ratioP1;P1;durP2;ratioP2;P2;SDS_P1;SDS_P2;PMS_P1;PMS_P2;Temp;Humidity;BMP_temperature;BMP_pressure;BME280_temperature;BME280_humidity;BME280_pressure;Samples;Min_cycle;Max_cycle;Signal;HPM_P1;HPM_P2
2023/02/02 12:23:05;;;;;;;14.48;2.25;;;9.90;98.20;;;;;;7397216;19;20320;-78
2023/02/02 12:25:56;;;;;;;14.45;1.95;;;10.10;99.20;;;;;;7399338;19;20023;-76
2023/02/02 12:28:46;;;;;;;8.85;1.63;;;10.40;97.60;;;;;;7401190;19;20081;-79
2023/02/02 12:31:25;;;;;;;19.98;1.85;;;10.80;97.50;;;;;;7402616;19;20022;-78
2023/02/02 12:33:59;;;;;;;5.85;1.55;;;11.30;96.40;;;;;;7396939;19;20312;-78
2023/02/02 12:36:39;;;;;;;7.22;1.23;;;11.60;95.30;;;;;;7398530;19;20079;-78
2023/02/02 12:39:31;;;;;;;15.95;2.17;;;11.90;94.30;;;;;;7396931;19;20020;-77
2023/02/02 12:42:32;;;;;;;9.23;1.55;;;12.20;94.00;;;;;;7420895;19;20081;-78
2023/02/02 12:45:20;;;;;;;8.82;1.52;;;12.60;93.30;;;;;;7295962;19;2004509;-78
2023/02/02 12:48:03;;;;;;;8.00;1.27;;;12.70;92.40;;;;;;7420197;19;20019;-78
2023/02/02 12:50:39;;;;;;;5.53;1.70;;;12.90;91.80;;;;;;7396736;19;20597;-77
2023/02/02 12:53:31;;;;;;;14.48;1.73;;;12.40;91.80;;;;;;7399954;19;20028;-78
2023/02/02 12:56:10;;;;;;;9.45;1.00;;;12.40;91.90;;;;;;7398651;19;20024;-78
2023/02/02 12:58:46;;;;;;;6.28;1.80;;;12.70;91.30;;;;;;7395086;19;20015;-76
2023/02/02 13:01:43;;;;;;;5.80;1.38;;;12.70;91.30;;;;;;7397959;19;20160;-78
2023/02/02 13:04:30;;;;;;;9.77;1.42;;;12.30;91.30;;;;;;7398878;19;20025;-79
2023/02/02 13:07:20;;;;;;;7.22;1.42;;;12.30;91.40;;;;;;7394474;19;20342;-78
2023/02/02 13:09:53;;;;;;;6.25;1.75;;;12.10;92.00;;;;;;7397976;19;20014;-78
2023/02/02 13:12:26;;;;;;;5.93;1.40;;;12.20;91.90;;;;;;7400084;19;20054;-78
2023/02/02 13:14:58;;;;;;;3.35;0.90;;;12.10;91.70;;;;;;7418766;19;20421;-78
2023/02/02 13:17:33;;;;;;;11.40;1.60;;;12.10;91.80;;;;;;7398458;19;20024;-78
2023/02/02 13:20:05;;;;;;;6.13;1.40;;;12.30;91.70;;;;;;7395805;19;20014;-78
2023/02/02 13:22:38;;;;;;;11.93;1.73;;;12.30;91.70;;;;;;7396158;19;20024;-77
2023/02/02 13:25:11;;;;;;;10.80;1.95;;;12.40;91.40;;;;;;7395707;19;20057;-77
2023/02/02 13:27:43;;;;;;;10.73;1.40;;;12.40;91.30;;;;;;7395945;19;20014;-78
2023/02/02 13:30:22;;;;;;;5.22;1.30;;;12.50;91.20;;;;;;7393659;19;20042;-76
2023/02/02 13:32:52;;;;;;;4.45;0.93;;;12.30;91.20;;;;;;7408969;19;20022;-77
2023/02/02 13:35:25;;;;;;;10.77;1.70;;;12.40;91.20;;;;;;7370278;19;20015;-77
2023/02/02 13:38:00;;;;;;;8.45;1.50;;;12.30;91.30;;;;;;7369931;19;20010;-77
2023/02/02 13:40:35;;;;;;;8.27;1.60;;;12.30;91.80;;;;;;7365374;19;20021;-78
2023/02/02 13:43:20;;;;;;;4.25;1.27;;;12.30;91.50;;;;;;7368870;19;20014;-78
2023/02/02 13:45:59;;;;;;;14.82;1.60;;;12.20;91.70;;;;;;7369774;19;20017;-77
2023/02/02 13:48:40;;;;;;;9.38;1.55;;;12.10;91.80;;;;;;7367807;19;20021;-77
2023/02/02 13:51:37;;;;;;;14.65;2.20;;;12.10;92.30;;;;;;7367023;19;20101;-78
2023/02/02 13:54:30;;;;;;;15.00;2.08;;;12.00;92.40;;;;;;7389637;19;20537;-78
2023/02/02 13:57:04;;;;;;;8.63;1.48;;;12.20;92.20;;;;;;7367114;19;20011;-78
2023/02/02 13:59:51;;;;;;;9.70;1.90;;;12.50;92.00;;;;;;7369955;19;20082;-78
2023/02/02 14:02:27;;;;;;;14.73;1.98;;;12.50;92.00;;;;;;7367155;19;20106;-78
2023/02/02 14:04:59;;;;;;;13.32;1.90;;;12.20;91.90;;;;;;7364835;19;20086;-77
2023/02/02 14:07:37;;;;;;;11.23;1.92;;;12.20;92.00;;;;;;7370648;19;20018;-77
2023/02/02 14:10:08;;;;;;;14.40;1.85;;;12.40;91.90;;;;;;7369337;19;20022;-77
2023/02/02 14:12:38;;;;;;;6.43;1.60;;;12.40;91.90;;;;;;7367050;19;20032;-77
2023/02/02 14:15:12;;;;;;;10.93;1.95;;;12.50;92.00;;;;;;7382509;19;20455;-77
2023/02/02 14:17:57;;;;;;;8.52;1.92;;;12.50;92.00;;;;;;7391611;19;20015;-77
2023/02/02 14:20:45;;;;;;;8.73;1.60;;;12.50;92.00;;;;;;7366411;19;20015;-77
2023/02/02 14:23:44;;;;;;;12.02;1.77;;;12.40;92.10;;;;;;7366368;19;20707;-77
2023/02/02 14:26:13;;;;;;;7.53;1.67;;;12.60;92.10;;;;;;7364982;19;20014;-85
2023/02/02 14:28:45;;;;;;;14.50;1.80;;;12.60;91.80;;;;;;7368110;19;20021;-80
2023/02/02 14:31:53;;;;;;;8.23;1.77;;;12.70;91.90;;;;;;7367137;19;20144;-77
2023/02/02 14:34:35;;;;;;;12.77;1.80;;;12.60;92.00;;;;;;7367934;19;20018;-78
2023/02/02 14:37:42;;;;;;;13.20;1.73;;;12.40;92.10;;;;;;7367959;19;20489;-79
2023/02/02 14:40:28;;;;;;;6.60;1.85;;;12.60;92.40;;;;;;7364065;19;20019;-78
2023/02/02 14:45:50;;;;;;;7.80;1.90;;;12.60;91.90;;;;;;7363024;19;20098;-78
2023/02/02 14:48:24;;;;;;;7.43;1.80;;;12.50;92.00;;;;;;7368127;19;20028;-77
2023/02/02 14:50:54;;;;;;;9.38;2.10;;;12.60;92.10;;;;;;7389061;19;20849;-80
2023/02/02 14:53:27;;;;;;;11.32;1.77;;;12.50;92.20;;;;;;7367349;19;20021;-80
2023/02/02 14:56:04;;;;;;;6.40;1.88;;;12.50;92.20;;;;;;7361966;19;20585;-80
2023/02/02 14:58:36;;;;;;;12.50;2.33;;;12.50;92.30;;;;;;7367948;19;20025;-79
2023/02/02 15:01:12;;;;;;;6.68;1.83;;;12.60;92.30;;;;;;7367912;19;20026;-77
2023/02/02 15:03:56;;;;;;;10.80;2.17;;;12.60;92.30;;;;;;7366652;19;20031;-79
2023/02/02 15:06:31;;;;;;;10.48;1.70;;;12.60;92.40;;;;;;7367973;19;20039;-79
2023/02/02 15:09:36;;;;;;;10.68;2.00;;;12.60;92.50;;;;;;7384704;19;20033;-79
2023/02/02 15:12:32;;;;;;;14.18;1.92;;;12.50;92.80;;;;;;7263059;19;2004554;-79
2023/02/02 15:15:12;;;;;;;9.52;1.73;;;12.60;92.80;;;;;;7391287;19;20066;-78
2023/02/02 15:17:54;;;;;;;11.32;2.10;;;12.60;92.70;;;;;;7362986;19;20019;-79
2023/02/02 15:20:31;;;;;;;12.23;3.00;;;12.60;92.70;;;;;;7364922;19;20021;-78
2023/02/02 15:23:03;;;;;;;13.18;2.17;;;12.60;92.60;;;;;;7369591;19;20014;-79
2023/02/02 15:25:38;;;;;;;8.73;1.63;;;12.70;93.10;;;;;;7369547;19;20027;-80
2023/02/02 15:28:15;;;;;;;11.07;2.15;;;12.70;92.70;;;;;;7364717;19;20113;-80
2023/02/02 15:30:48;;;;;;;5.45;1.90;;;12.70;92.60;;;;;;7378564;19;20086;-79
2023/02/02 15:33:30;;;;;;;6.88;1.80;;;12.80;92.40;;;;;;7389439;19;20039;-78
2023/02/02 15:36:05;;;;;;;10.00;1.70;;;12.80;92.30;;;;;;7367436;19;20503;-79
2023/02/02 15:38:37;;;;;;;12.55;2.08;;;12.90;92.20;;;;;;7369748;19;20849;-78
2023/02/02 15:41:08;;;;;;;10.73;1.92;;;12.70;92.10;;;;;;7361643;19;20014;-79
2023/02/02 15:43:38;;;;;;;8.07;2.10;;;12.70;92.50;;;;;;7367860;19;20031;-80
2023/02/02 15:46:08;;;;;;;6.60;1.30;;;12.70;92.40;;;;;;7369429;19;20074;-79
2023/02/02 15:48:37;;;;;;;8.18;1.73;;;12.80;92.30;;;;;;7390525;19;20022;-81
2023/02/02 15:51:16;;;;;;;7.65;1.60;;;12.80;92.10;;;;;;7367976;19;20048;-81
2023/02/02 15:53:51;;;;;;;14.40;1.85;;;12.80;92.00;;;;;;7368739;19;20081;-79
2023/02/02 15:56:22;;;;;;;10.73;1.58;;;12.80;91.90;;;;;;7366202;19;20165;-79
2023/02/02 15:58:53;;;;;;;6.97;1.58;;;12.80;91.90;;;;;;7369981;19;20051;-78
2023/02/02 16:01:23;;;;;;;3.35;1.30;;;12.80;91.80;;;;;;7370979;19;20017;-81
2023/02/02 16:03:59;;;;;;;5.80;1.50;;;12.50;92.00;;;;;;7365102;19;20326;-80
2023/02/02 16:06:33;;;;;;;2.80;1.10;;;12.50;92.10;;;;;;7392945;19;20086;-80
2023/02/02 16:09:04;;;;;;;8.43;1.35;;;12.60;92.10;;;;;;7370265;19;20465;-81
2023/02/02 16:11:33;;;;;;;5.28;1.30;;;12.60;92.00;;;;;;7368801;19;20019;-78
2023/02/02 16:14:03;;;;;;;7.78;1.30;;;12.60;92.00;;;;;;7369441;19;20025;-79
2023/02/02 16:16:34;;;;;;;5.65;1.42;;;12.70;92.00;;;;;;7370404;19;20039;-79
2023/02/02 16:19:15;;;;;;;6.50;1.35;;;12.70;91.90;;;;;;7369207;19;20035;-80
2023/02/02 16:21:52;;;;;;;7.50;1.65;;;12.60;91.80;;;;;;7381268;19;20308;-77
2023/02/02 16:24:24;;;;;;;7.82;1.48;;;12.70;91.80;;;;;;7390730;19;20024;-79
2023/02/02 16:26:55;;;;;;;4.20;1.17;;;12.70;91.70;;;;;;7364143;19;20313;-79
2023/02/02 16:29:26;;;;;;;4.83;1.50;;;12.70;91.80;;;;;;7366430;19;20021;-79
2023/02/02 16:31:55;;;;;;;5.93;1.48;;;12.60;91.70;;;;;;7368399;19;20011;-78
2023/02/02 16:34:47;;;;;;;3.65;1.50;;;12.70;91.70;;;;;;7369195;19;20105;-78
2023/02/02 16:37:24;;;;;;;4.78;1.17;;;12.60;91.80;;;;;;7365503;19;20072;-78
2023/02/02 16:39:53;;;;;;;5.15;1.55;;;12.60;91.80;;;;;;7366299;19;20026;-79
2023/02/02 16:42:32;;;;;;;8.15;1.75;;;12.60;91.70;;;;;;7387205;19;21531;-79
2023/02/02 16:45:02;;;;;;;7.85;1.45;;;12.50;91.70;;;;;;7368544;19;20358;-80
2023/02/02 16:47:36;;;;;;;5.93;1.60;;;12.60;92.10;;;;;;7367487;19;20078;-79
2023/02/02 16:50:26;;;;;;;2.97;1.25;;;12.60;91.80;;;;;;7366327;19;20065;-80
2023/02/02 16:53:00;;;;;;;4.03;1.30;;;12.60;91.70;;;;;;7368454;19;20431;-78
2023/02/02 16:55:31;;;;;;;7.53;1.80;;;12.60;91.70;;;;;;7364308;19;20015;-78
2023/02/02 16:58:01;;;;;;;6.00;1.27;;;12.60;91.70;;;;;;7368615;19;20035;-79
2023/02/02 17:00:32;;;;;;;11.98;1.63;;;12.70;91.70;;;;;;7385626;19;20282;-79
2023/02/02 17:03:04;;;;;;;9.85;1.50;;;12.60;91.70;;;;;;7365727;19;20323;-80
2023/02/02 17:05:35;;;;;;;6.22;1.40;;;12.60;91.80;;;;;;7364784;19;20029;-79
2023/02/02 17:08:07;;;;;;;5.60;1.58;;;12.60;91.80;;;;;;7368345;19;20018;-79
2023/02/02 17:10:38;;;;;;;8.50;1.45;;;12.60;91.70;;;;;;7374214;19;20122;-78
2023/02/02 17:13:40;;;;;;;4.97;1.55;;;12.60;91.70;;;;;;7374282;19;20534;-79
2023/02/02 17:16:08;;;;;;;;;;;12.60;91.80;;;;;;7372042;19;20029;-79
2023/02/02 17:18:37;;;;;;;4.57;1.38;;;12.60;91.80;;;;;;7396736;19;20482;-79
2023/02/02 17:21:10;;;;;;;11.15;1.67;;;12.50;91.80;;;;;;7373201;19;20414;-79
2023/02/02 17:23:42;;;;;;;10.95;2.25;;;12.60;91.90;;;;;;7371227;19;20017;-79
2023/02/02 17:26:11;;;;;;;9.40;1.75;;;12.60;91.90;;;;;;7373332;19;20102;-81
2023/02/02 17:28:41;;;;;;;8.35;1.50;;;12.60;92.20;;;;;;7373247;19;20363;-80
2023/02/02 17:31:13;;;;;;;4.83;1.50;;;12.50;91.80;;;;;;7370535;19;20379;-80
2023/02/02 17:33:42;;;;;;;3.10;1.50;;;12.60;91.80;;;;;;7391953;19;20089;-80
2023/02/02 17:36:18;;;;;;;14.15;1.85;;;12.60;91.80;;;;;;7372791;19;20018;-79
2023/02/02 17:38:49;;;;;;;5.43;1.52;;;12.50;91.80;;;;;;7371941;19;20010;-80
2023/02/02 17:41:18;;;;;;;10.50;1.95;;;12.50;91.80;;;;;;7375013;19;20048;-79
2023/02/02 17:43:47;;;;;;;7.85;1.77;;;12.60;91.90;;;;;;7377531;19;20019;-80
2023/02/02 17:46:16;;;;;;;8.52;1.92;;;12.50;91.80;;;;;;7373586;19;20552;-79
2023/02/02 17:48:44;;;;;;;7.32;1.90;;;12.40;92.00;;;;;;7378919;19;20093;-78
2023/02/02 17:51:17;;;;;;;6.00;2.10;;;12.50;92.00;;;;;;7400773;19;20648;-80
2023/02/02 17:53:46;;;;;;;4.43;1.98;;;12.50;92.00;;;;;;7379587;19;20014;-81
2023/02/02 17:56:23;;;;;;;6.78;1.85;;;12.50;91.90;;;;;;7373343;19;20014;-79
2023/02/02 17:58:52;;;;;;;10.70;2.75;;;12.50;91.80;;;;;;7375376;19;20022;-79
2023/02/02 18:01:21;;;;;;;6.68;2.03;;;12.60;91.80;;;;;;7376012;19;20036;-79
2023/02/02 18:03:50;;;;;;;5.63;2.05;;;12.60;91.80;;;;;;7372878;19;20018;-78
2023/02/02 18:06:21;;;;;;;13.27;2.42;;;12.60;91.80;;;;;;7395601;19;20094;-78
2023/02/02 18:08:50;;;;;;;10.05;2.40;;;12.60;91.70;;;;;;7371317;19;20064;-77
2023/02/02 18:11:21;;;;;;;9.15;2.17;;;12.60;91.70;;;;;;7370848;19;20014;-80
2023/02/02 18:13:50;;;;;;;8.13;2.47;;;12.60;91.70;;;;;;7369662;19;20102;-79
2023/02/02 18:16:20;;;;;;;12.07;2.80;;;12.60;91.60;;;;;;7368064;19;20090;-79
2023/02/02 18:18:48;;;;;;;12.02;2.45;;;12.60;91.60;;;;;;7370448;19;20018;-79
2023/02/02 18:21:17;;;;;;;5.95;2.38;;;12.60;91.60;;;;;;7389085;19;20021;-81
2023/02/02 18:23:50;;;;;;;9.10;3.20;;;12.60;91.60;;;;;;7366728;19;20014;-79
2023/02/02 18:26:23;;;;;;;9.57;3.30;;;12.60;91.60;;;;;;7369398;19;20079;-80
2023/02/02 18:28:52;;;;;;;9.75;3.35;;;12.60;91.60;;;;;;7367464;19;20021;-81
2023/02/02 18:31:23;;;;;;;11.45;2.88;;;12.60;91.50;;;;;;7375641;19;20165;-80
2023/02/02 18:33:53;;;;;;;12.03;2.70;;;12.60;91.50;;;;;;7368509;19;20026;-79
2023/02/02 18:36:23;;;;;;;11.60;3.03;;;12.60;91.50;;;;;;7391632;19;20022;-82
2023/02/02 18:38:52;;;;;;;10.20;3.20;;;12.60;91.40;;;;;;7369804;19;20018;-80
2023/02/02 18:41:24;;;;;;;7.13;2.60;;;12.60;91.50;;;;;;7368991;19;20175;-80
2023/02/02 18:43:55;;;;;;;7.25;2.45;;;12.60;91.50;;;;;;7370875;19;20015;-82
2023/02/02 18:46:25;;;;;;;12.85;3.53;;;12.60;91.50;;;;;;7370318;19;20102;-81
2023/02/02 18:48:54;;;;;;;9.48;3.50;;;12.60;91.50;;;;;;7373759;19;20023;-82
2023/02/02 18:51:22;;;;;;;7.28;3.10;;;12.60;91.70;;;;;;7389561;19;20018;-79
2023/02/02 18:53:53;;;;;;;10.50;4.07;;;12.60;91.70;;;;;;7370748;19;20018;-80
2023/02/02 18:56:25;;;;;;;6.45;2.70;;;12.60;91.70;;;;;;7373104;19;20021;-79
2023/02/02 18:58:54;;;;;;;12.23;3.55;;;12.60;91.60;;;;;;7365006;19;20010;-79
2023/02/02 19:01:24;;;;;;;12.95;2.97;;;12.70;91.70;;;;;;7363879;19;20010;-79
2023/02/02 19:03:55;;;;;;;6.95;2.80;;;12.60;91.70;;;;;;7369155;19;20010;-78
2023/02/02 19:09:06;;;;;;;9.00;2.67;;;12.60;91.90;;;;;;7370818;19;20063;-79
2023/02/02 19:11:41;;;;;;;10.52;3.03;;;12.50;91.80;;;;;;7372713;19;20029;-79
2023/02/02 19:14:17;;;;;;;8.05;3.20;;;12.50;91.90;;;;;;7372804;19;20448;-82
2023/02/02 19:16:47;;;;;;;13.05;4.25;;;12.50;91.90;;;;;;7370882;19;20022;-79
2023/02/02 19:19:24;;;;;;;15.77;5.47;;;12.50;92.00;;;;;;7372766;19;20016;-79
2023/02/02 19:21:56;;;;;;;30.70;10.75;;;12.60;92.10;;;;;;7373269;19;20015;-78
2023/02/02 19:24:27;;;;;;;20.58;5.30;;;12.50;92.00;;;;;;7391370;19;20023;-79
2023/02/02 19:26:58;;;;;;;11.35;5.03;;;12.60;92.00;;;;;;7370502;19;20372;-79
2023/02/02 19:29:35;;;;;;;11.32;3.33;;;12.50;92.00;;;;;;7370524;19;20024;-80
2023/02/02 19:32:11;;;;;;;15.30;3.80;;;12.50;91.90;;;;;;7372841;19;20085;-80
2023/02/02 19:34:39;;;;;;;8.20;2.72;;;12.50;92.00;;;;;;7370106;19;20014;-78
2023/02/02 19:37:24;;;;;;;7.68;3.00;;;12.60;91.90;;;;;;7369895;19;20111;-80
2023/02/02 19:39:56;;;;;;;8.65;3.03;;;12.50;92.00;;;;;;7371501;19;20018;-80
2023/02/02 19:42:27;;;;;;;6.40;3.22;;;12.50;91.90;;;;;;7392923;19;20023;-79
2023/02/02 19:44:57;;;;;;;;;;;12.50;92.00;;;;;;7367073;19;20022;-79
2023/02/02 19:47:32;;;;;;;9.13;4.05;;;12.60;92.10;;;;;;7371097;19;19955;-79
2023/02/02 19:50:13;;;;;;;8.88;4.05;;;12.50;92.00;;;;;;7370836;19;20110;-80
2023/02/02 19:52:45;;;;;;;12.27;4.63;;;12.60;92.10;;;;;;7377872;19;20620;-81
2023/02/02 19:55:25;;;;;;;9.60;3.95;;;12.60;92.10;;;;;;7373490;19;20018;-81
2023/02/02 19:58:02;;;;;;;15.13;3.95;;;12.50;92.10;;;;;;7373494;19;20122;-80
2023/02/02 20:00:33;;;;;;;11.93;3.70;;;12.60;92.10;;;;;;7394331;19;20467;-81
2023/02/02 20:03:04;;;;;;;10.75;3.63;;;12.60;92.20;;;;;;7371044;19;20015;-80
2023/02/02 20:05:37;;;;;;;14.23;3.63;;;12.50;92.10;;;;;;7372402;19;20048;-79
2023/02/02 20:08:15;;;;;;;13.70;3.90;;;12.60;92.20;;;;;;7367065;19;20131;-80
2023/02/02 20:10:45;;;;;;;11.38;4.70;;;12.60;92.20;;;;;;7369024;19;20105;-80
2023/02/02 20:13:26;;;;;;;9.40;3.00;;;12.50;92.30;;;;;;7367189;19;20478;-80
2023/02/02 20:15:56;;;;;;;6.93;3.03;;;12.60;92.40;;;;;;7367316;19;20018;-79
2023/02/02 20:18:28;;;;;;;8.55;3.00;;;12.50;92.10;;;;;;7388067;19;20025;-80
2023/02/02 20:20:58;;;;;;;14.18;3.03;;;12.50;92.30;;;;;;7367821;19;20607;-80
2023/02/02 20:23:40;;;;;;;15.02;3.53;;;12.60;92.10;;;;;;7370902;19;20083;-80
2023/02/02 20:26:19;;;;;;;10.00;3.10;;;12.40;92.00;;;;;;7369966;19;20421;-80
2023/02/02 20:28:51;;;;;;;9.20;3.30;;;12.40;92.10;;;;;;7370496;19;20465;-80
2023/02/02 20:31:26;;;;;;;9.32;2.90;;;12.50;92.00;;;;;;7368226;19;20078;-80
2023/02/02 20:33:56;;;;;;;7.40;3.42;;;12.50;92.00;;;;;;7370866;19;20521;-79
2023/02/02 20:36:39;;;;;;;12.15;3.15;;;12.50;92.00;;;;;;7388283;19;20089;-80
2023/02/02 20:39:27;;;;;;;9.93;3.58;;;12.50;92.00;;;;;;7373411;19;20022;-79
2023/02/02 20:41:57;;;;;;;9.73;3.00;;;12.50;92.00;;;;;;7374834;19;20034;-80
2023/02/02 20:44:30;;;;;;;15.00;3.50;;;12.50;91.80;;;;;;7379527;19;20025;-80
2023/02/02 20:46:59;;;;;;;11.57;3.80;;;12.50;91.70;;;;;;7376898;19;20430;-80
2023/02/02 20:49:30;;;;;;;10.38;2.63;;;12.60;91.80;;;;;;7377005;19;20018;-80
2023/02/02 20:52:01;;;;;;;5.77;2.67;;;12.50;91.50;;;;;;7378729;19;20018;-80
2023/02/02 20:54:30;;;;;;;7.30;2.72;;;12.60;91.60;;;;;;7398074;19;20071;-80
2023/02/02 20:57:00;;;;;;;8.35;2.75;;;12.60;91.60;;;;;;7382293;19;20031;-85
2023/02/02 20:59:32;;;;;;;6.20;2.80;;;12.60;91.40;;;;;;7382304;19;20019;-80
2023/02/02 21:02:04;;;;;;;9.90;2.97;;;12.50;91.50;;;;;;7377605;19;20490;-81
2023/02/02 21:04:33;;;;;;;11.32;3.05;;;12.60;91.70;;;;;;7375311;19;20090;-81
2023/02/02 21:07:01;;;;;;;10.63;2.78;;;12.50;91.50;;;;;;7371170;19;20122;-81
2023/02/02 21:09:30;;;;;;;7.70;2.67;;;12.50;91.50;;;;;;7396377;19;20017;-83
2023/02/02 21:11:59;;;;;;;9.25;2.47;;;12.60;91.50;;;;;;7374927;19;20436;-80
2023/02/02 21:14:30;;;;;;;9.25;2.63;;;12.50;91.50;;;;;;7373385;19;20035;-80
2023/02/02 21:16:59;;;;;;;10.90;2.85;;;12.50;91.70;;;;;;7374548;19;20113;-81
2023/02/02 21:19:28;;;;;;;8.05;2.70;;;12.40;92.10;;;;;;7377050;19;20025;-81
2023/02/02 21:21:57;;;;;;;6.32;2.60;;;12.40;91.80;;;;;;7379473;19;20014;-80
2023/02/02 21:24:26;;;;;;;6.95;2.65;;;12.40;91.70;;;;;;7397026;19;20027;-80
2023/02/02 21:26:56;;;;;;;12.35;2.72;;;12.40;91.70;;;;;;7375769;19;20077;-80
2023/02/02 21:29:25;;;;;;;12.50;2.78;;;12.40;91.60;;;;;;7374500;19;20060;-81
2023/02/02 21:31:58;;;;;;;11.05;3.67;;;12.50;91.60;;;;;;7374043;19;20339;-80
2023/02/02 21:34:27;;;;;;;11.35;3.70;;;12.40;91.50;;;;;;7375110;19;20018;-80
2023/02/02 21:36:58;;;;;;;8.13;2.78;;;12.40;91.60;;;;;;7376497;19;20094;-80
2023/02/02 21:39:30;;;;;;;5.80;2.92;;;12.40;91.60;;;;;;7402521;19;20033;-81
2023/02/02 21:42:14;;;;;;;9.98;2.90;;;12.40;91.60;;;;;;7382342;19;20015;-81
2023/02/02 21:44:45;;;;;;;7.30;2.90;;;12.40;91.60;;;;;;7378347;19;20027;-80
2023/02/02 21:47:35;;;;;;;9.35;2.65;;;12.50;91.50;;;;;;7373868;19;20035;-80
2023/02/02 21:50:17;;;;;;;8.85;2.80;;;12.50;91.60;;;;;;7375208;19;20375;-81
2023/02/02 21:52:45;;;;;;;;;;;12.50;91.50;;;;;;7376410;19;20484;-80
2023/02/02 21:55:35;;;;;;;11.80;2.75;;;12.70;91.50;;;;;;7379126;19;20354;-80
2023/02/02 21:58:16;;;;;;;8.25;2.70;;;12.50;91.40;;;;;;7381620;19;20023;-80
2023/02/02 22:00:45;;;;;;;8.23;3.25;;;12.50;91.50;;;;;;7379249;19;20403;-80
2023/02/02 22:03:39;;;;;;;11.18;3.45;;;12.50;91.50;;;;;;7395781;19;20025;-80
2023/02/02 22:06:27;;;;;;;11.23;3.70;;;12.50;91.60;;;;;;7372983;19;20014;-80
2023/02/02 22:09:02;;;;;;;6.78;2.90;;;12.40;91.60;;;;;;7374855;19;20015;-81
2023/02/02 22:11:37;;;;;;;12.15;2.92;;;12.40;91.50;;;;;;7375939;19;20029;-80
2023/02/02 22:14:18;;;;;;;7.85;2.70;;;12.40;91.60;;;;;;7372948;19;20031;-80
2023/02/02 22:16:49;;;;;;;11.27;3.33;;;12.30;91.80;;;;;;7370334;19;20037;-80
2023/02/02 22:19:42;;;;;;;7.25;3.10;;;12.30;91.80;;;;;;7369174;19;20014;-80
2023/02/02 22:22:17;;;;;;;8.10;3.15;;;12.30;91.90;;;;;;7371674;19;20046;-80
2023/02/02 22:24:47;;;;;;;7.85;2.95;;;12.30;91.80;;;;;;7365586;19;20014;-81
2023/02/02 22:27:20;;;;;;;8.88;3.10;;;12.40;91.80;;;;;;7388308;19;20446;-81
2023/02/02 22:29:49;;;;;;;7.53;2.58;;;12.40;91.70;;;;;;7367349;19;20022;-80
2023/02/02 22:32:18;;;;;;;13.65;3.22;;;12.40;91.60;;;;;;7370627;19;20468;-80
2023/02/02 22:34:49;;;;;;;4.18;2.47;;;12.40;91.80;;;;;;7367329;19;20022;-80
2023/02/02 22:37:18;;;;;;;7.50;2.70;;;12.40;91.60;;;;;;7366641;19;20014;-80
2023/02/02 22:39:47;;;;;;;8.10;3.05;;;12.30;91.60;;;;;;7365405;19;20026;-80
2023/02/02 22:42:17;;;;;;;9.65;2.78;;;12.40;91.60;;;;;;7388733;19;20657;-81
2023/02/02 22:44:47;;;;;;;6.03;2.22;;;12.40;91.50;;;;;;7368148;19;20097;-80
2023/02/02 22:47:15;;;;;;;6.60;2.72;;;12.40;91.50;;;;;;7367787;19;20104;-80
2023/02/02 22:49:44;;;;;;;6.43;2.47;;;12.30;91.50;;;;;;7368873;19;20513;-80
2023/02/02 22:52:15;;;;;;;5.95;2.47;;;12.40;91.60;;;;;;7369651;19;20441;-81
2023/02/02 22:54:44;;;;;;;5.28;2.42;;;12.30;91.50;;;;;;7382072;19;20133;-80
2023/02/02 22:57:13;;;;;;;5.85;2.47;;;12.30;91.60;;;;;;7389717;19;20082;-81
2023/02/02 22:59:41;;;;;;;7.03;2.15;;;12.30;91.70;;;;;;7368281;19;20686;-81
2023/02/02 23:02:10;;;;;;;8.63;3.05;;;12.30;91.60;;;;;;7368148;19;20010;-81
2023/02/02 23:04:39;;;;;;;9.88;2.10;;;12.40;91.60;;;;;;7364632;19;20011;-81
2023/02/02 23:07:07;;;;;;;8.63;2.38;;;12.30;91.70;;;;;;7363810;19;20016;-80
2023/02/02 23:09:39;;;;;;;6.65;2.50;;;12.30;91.70;;;;;;7388974;19;20024;-80
2023/02/02 23:12:08;;;;;;;5.38;2.30;;;12.30;91.60;;;;;;7369371;19;20090;-81
2023/02/02 23:14:36;;;;;;;8.25;1.90;;;12.40;91.60;;;;;;7367127;19;20025;-81
2023/02/02 23:17:07;;;;;;;4.22;1.55;;;12.30;91.60;;;;;;7367002;19;20469;-80
2023/02/02 23:19:35;;;;;;;6.38;2.20;;;12.30;91.70;;;;;;7365967;19;20759;-80
2023/02/02 23:22:04;;;;;;;4.93;1.92;;;12.40;91.70;;;;;;7369881;19;20401;-80
2023/02/02 23:24:33;;;;;;;6.20;1.55;;;12.40;91.60;;;;;;7388973;19;20758;-81
2023/02/02 23:27:04;;;;;;;7.68;2.15;;;12.40;91.90;;;;;;7366167;19;20020;-81
2023/02/02 23:29:33;;;;;;;12.32;2.08;;;12.40;91.40;;;;;;7371697;19;20055;-81
2023/02/02 23:32:01;;;;;;;9.48;1.90;;;12.40;91.40;;;;;;7380965;19;20007;-80
2023/02/02 23:34:30;;;;;;;6.05;1.77;;;12.50;91.50;;;;;;7374022;19;20082;-80
2023/02/02 23:36:59;;;;;;;3.67;1.70;;;12.40;91.50;;;;;;7370821;19;20019;-80
2023/02/02 23:39:27;;;;;;;6.93;1.70;;;12.40;91.50;;;;;;7392650;19;20106;-81
2023/02/02 23:41:56;;;;;;;7.07;1.73;;;12.30;91.50;;;;;;7371823;19;20434;-80
2023/02/02 23:44:27;;;;;;;7.28;2.05;;;12.40;91.60;;;;;;7370011;19;20014;-81
2023/02/02 23:46:56;;;;;;;4.90;2.13;;;12.40;91.50;;;;;;7370498;19;20010;-80
2023/02/02 23:49:25;;;;;;;6.72;1.52;;;12.40;91.50;;;;;;7371108;19;20010;-80
2023/02/02 23:51:54;;;;;;;2.50;1.63;;;12.50;91.50;;;;;;7368820;19;20033;-80
2023/02/02 23:54:23;;;;;;;6.10;2.15;;;12.50;91.60;;;;;;7392386;19;20018;-80
2023/02/02 23:56:52;;;;;;;10.93;2.70;;;12.50;91.60;;;;;;7368281;19;20043;-80
2023/02/02 23:59:21;;;;;;;5.43;1.65;;;12.60;91.80;;;;;;7371477;19;20334;-80
